sensor_id;sensor_type;location;lat;lon;timestamp;temperature;humidity
16388;DHT22;8303;53.446;9.988;2023-04-15T04:47:44;7.60;91.20
16388;DHT22;8303;53.446;9.988;2023-04-15T04:50:12;7.60;97.00
16388;DHT22;8303;53.446;9.988;2023-04-15T04:52:40;7.70;99.90
16388;DHT22;8303;53.446;9.988;2023-04-15T04:55:09;7.70;99.90
16388;DHT22;8303;53.446;9.988;2023-04-15T04:57:37;7.70;99.90
16388;DHT22;8303;53.446;9.988;2023-04-15T05:00:05;7.70;99.90
16388;DHT22;8303;53.446;9.988;2023-04-15T05:02:33;7.70;99.90
16388;DHT22;8303;53.446;9.988;2023-04-15T05:05:02;7.70;99.90
16388;DHT22;8303;53.446;9.988;2023-04-15T05:07:29;7.70;99.90
16388;DHT22;8303;53.446;9.988;2023-04-15T05:09:56;7.70;99.90
16388;DHT22;8303;53.446;9.988;2023-04-15T05:12:24;7.80;99.90
16388;DHT22;8303;53.446;9.988;2023-04-15T05:14:51;7.70;99.90
16388;DHT22;8303;53.446;9.988;2023-04-15T05:17:19;7.70;99.90
16388;DHT22;8303;53.446;9.988;2023-04-15T05:19:46;7.80;99.90
16388;DHT22;8303;53.446;9.988;2023-04-15T05:22:15;7.70;99.90
16388;DHT22;8303;53.446;9.988;2023-04-15T05:24:42;7.80;99.90
16388;DHT22;8303;53.446;9.988;2023-04-15T05:27:09;7.80;99.90
16388;DHT22;8303;53.446;9.988;2023-04-15T05:29:37;7.80;99.90
16388;DHT22;8303;53.446;9.988;2023-04-15T05:32:04;7.80;99.90
16388;DHT22;8303;53.446;9.988;2023-04-15T05:34:32;7.80;99.90
16388;DHT22;8303;53.446;9.988;2023-04-15T05:36:59;7.80;99.90
16388;DHT22;8303;53.446;9.988;2023-04-15T05:39:28;7.90;99.90
16388;DHT22;8303;53.446;9.988;2023-04-15T05:41:57;7.90;99.90
16388;DHT22;8303;53.446;9.988;2023-04-15T05:44:24;7.90;99.90
16388;DHT22;8303;53.446;9.988;2023-04-15T05:46:52;7.90;99.90
16388;DHT22;8303;53.446;9.988;2023-04-15T05:49:19;7.90;99.90
16388;DHT22;8303;53.446;9.988;2023-04-15T05:51:49;7.90;99.90
16388;DHT22;8303;53.446;9.988;2023-04-15T05:54:19;7.90;99.90
16388;DHT22;8303;53.446;9.988;2023-04-15T05:56:48;7.90;99.90
16388;DHT22;8303;53.446;9.988;2023-04-15T05:59:15;7.90;99.90
16388;DHT22;8303;53.446;9.988;2023-04-15T06:01:42;8.00;99.90
16388;DHT22;8303;53.446;9.988;2023-04-15T06:04:09;7.90;99.90
16388;DHT22;8303;53.446;9.988;2023-04-15T06:06:37;7.90;99.90
16388;DHT22;8303;53.446;9.988;2023-04-15T06:09:05;8.00;99.90
16388;DHT22;8303;53.446;9.988;2023-04-15T06:11:32;8.00;99.90
16388;DHT22;8303;53.446;9.988;2023-04-15T06:14:01;8.00;99.90
16388;DHT22;8303;53.446;9.988;2023-04-15T06:16:28;7.90;99.90
16388;DHT22;8303;53.446;9.988;2023-04-15T06:18:55;8.00;99.90
16388;DHT22;8303;53.446;9.988;2023-04-15T06:21:22;8.00;99.90
16388;DHT22;8303;53.446;9.988;2023-04-15T06:23:49;8.00;99.90
16388;DHT22;8303;53.446;9.988;2023-04-15T06:26:17;8.10;99.90
16388;DHT22;8303;53.446;9.988;2023-04-15T06:28:44;8.10;99.90
16388;DHT22;8303;53.446;9.988;2023-04-15T06:31:13;8.10;99.90
16388;DHT22;8303;53.446;9.988;2023-04-15T06:33:40;8.20;99.90
16388;DHT22;8303;53.446;9.988;2023-04-15T06:36:07;8.20;99.90
16388;DHT22;8303;53.446;9.988;2023-04-15T06:38:35;8.10;99.90
16388;DHT22;8303;53.446;9.988;2023-04-15T06:41:02;8.10;99.90
16388;DHT22;8303;53.446;9.988;2023-04-15T06:43:30;8.20;99.90
16388;DHT22;8303;53.446;9.988;2023-04-15T06:45:57;8.10;99.90
16388;DHT22;8303;53.446;9.988;2023-04-15T06:48:26;8.10;99.90
16388;DHT22;8303;53.446;9.988;2023-04-15T06:50:56;8.20;99.90
16388;DHT22;8303;53.446;9.988;2023-04-15T06:53:24;8.10;99.90
16388;DHT22;8303;53.446;9.988;2023-04-15T06:55:51;8.10;1.00
16388;DHT22;8303;53.446;9.988;2023-04-15T06:58:19;8.20;1.00
16388;DHT22;8303;53.446;9.988;2023-04-15T07:00:46;8.30;1.00
16388;DHT22;8303;53.446;9.988;2023-04-15T07:03:14;8.30;1.00
16388;DHT22;8303;53.446;9.988;2023-04-15T07:05:42;8.20;1.00
16388;DHT22;8303;53.446;9.988;2023-04-15T07:08:09;8.30;1.00
16388;DHT22;8303;53.446;9.988;2023-04-15T07:10:36;8.30;1.00
16388;DHT22;8303;53.446;9.988;2023-04-15T07:13:04;8.20;1.00
16388;DHT22;8303;53.446;9.988;2023-04-15T07:15:33;8.20;1.00
16388;DHT22;8303;53.446;9.988;2023-04-15T07:18:00;8.30;1.00
16388;DHT22;8303;53.446;9.988;2023-04-15T07:20:28;8.30;1.00
16388;DHT22;8303;53.446;9.988;2023-04-15T07:22:57;8.40;1.00
16388;DHT22;8303;53.446;9.988;2023-04-15T07:25:24;8.40;1.00
16388;DHT22;8303;53.446;9.988;2023-04-15T07:27:52;8.40;1.00
16388;DHT22;8303;53.446;9.988;2023-04-15T07:30:20;8.50;1.00
16388;DHT22;8303;53.446;9.988;2023-04-15T07:32:48;8.50;1.00
16388;DHT22;8303;53.446;9.988;2023-04-15T07:35:15;8.50;1.00
16388;DHT22;8303;53.446;9.988;2023-04-15T07:37:43;8.50;1.00
16388;DHT22;8303;53.446;9.988;2023-04-15T07:40:12;8.50;99.90
16388;DHT22;8303;53.446;9.988;2023-04-15T07:42:41;8.60;99.90
16388;DHT22;8303;53.446;9.988;2023-04-15T07:45:09;8.60;99.90
16388;DHT22;8303;53.446;9.988;2023-04-15T07:47:36;8.60;99.90
16388;DHT22;8303;53.446;9.988;2023-04-15T07:50:04;8.60;99.90
16388;DHT22;8303;53.446;9.988;2023-04-15T07:52:31;8.60;99.90
16388;DHT22;8303;53.446;9.988;2023-04-15T07:55:04;8.60;99.90
16388;DHT22;8303;53.446;9.988;2023-04-15T07:57:33;8.60;99.90
16388;DHT22;8303;53.446;9.988;2023-04-15T08:00:00;8.70;99.90
16388;DHT22;8303;53.446;9.988;2023-04-15T08:02:28;8.70;99.90
16388;DHT22;8303;53.446;9.988;2023-04-15T08:04:56;8.60;99.90
16388;DHT22;8303;53.446;9.988;2023-04-15T08:07:24;8.60;99.90
16388;DHT22;8303;53.446;9.988;2023-04-15T08:09:52;8.60;99.90
16388;DHT22;8303;53.446;9.988;2023-04-15T08:12:19;8.60;99.90
16388;DHT22;8303;53.446;9.988;2023-04-15T08:14:49;8.70;99.90
16388;DHT22;8303;53.446;9.988;2023-04-15T08:17:16;8.70;99.90
16388;DHT22;8303;53.446;9.988;2023-04-15T08:19:43;8.80;99.90
16388;DHT22;8303;53.446;9.988;2023-04-15T08:22:11;8.90;49.70
16388;DHT22;8303;53.446;9.988;2023-04-15T08:24:38;9.10;1.00
16388;DHT22;8303;53.446;9.988;2023-04-15T08:27:06;9.00;1.00
16388;DHT22;8303;53.446;9.988;2023-04-15T08:29:33;9.50;1.00
16388;DHT22;8303;53.446;9.988;2023-04-15T08:32:02;9.80;1.00
16388;DHT22;8303;53.446;9.988;2023-04-15T08:34:30;9.80;1.00
16388;DHT22;8303;53.446;9.988;2023-04-15T08:36:57;9.60;1.00
16388;DHT22;8303;53.446;9.988;2023-04-15T08:39:25;9.30;1.00
16388;DHT22;8303;53.446;9.988;2023-04-15T08:42:00;9.10;1.00
16388;DHT22;8303;53.446;9.988;2023-04-15T08:44:29;9.20;1.00
16388;DHT22;8303;53.446;9.988;2023-04-15T08:47:01;9.20;1.00
16388;DHT22;8303;53.446;9.988;2023-04-15T08:49:31;9.20;1.00
16388;DHT22;8303;53.446;9.988;2023-04-15T08:51:59;9.30;1.00
16388;DHT22;8303;53.446;9.988;2023-04-15T08:54:26;9.30;1.00
16388;DHT22;8303;53.446;9.988;2023-04-15T08:56:54;9.40;1.00
16388;DHT22;8303;53.446;9.988;2023-04-15T08:59:22;9.40;1.00
16388;DHT22;8303;53.446;9.988;2023-04-15T09:01:57;9.50;1.00
16388;DHT22;8303;53.446;9.988;2023-04-15T09:04:26;9.50;1.00
16388;DHT22;8303;53.446;9.988;2023-04-15T09:06:54;9.50;1.00
16388;DHT22;8303;53.446;9.988;2023-04-15T09:09:22;9.50;1.00
16388;DHT22;8303;53.446;9.988;2023-04-15T09:11:49;9.40;1.00
16388;DHT22;8303;53.446;9.988;2023-04-15T09:14:16;9.40;1.00
16388;DHT22;8303;53.446;9.988;2023-04-15T09:16:57;9.40;1.00
16388;DHT22;8303;53.446;9.988;2023-04-15T09:19:26;9.60;1.00
16388;DHT22;8303;53.446;9.988;2023-04-15T09:21:56;9.60;1.00
16388;DHT22;8303;53.446;9.988;2023-04-15T09:24:24;9.70;1.00
16388;DHT22;8303;53.446;9.988;2023-04-15T09:26:52;9.80;1.00
16388;DHT22;8303;53.446;9.988;2023-04-15T09:29:23;9.90;1.00
16388;DHT22;8303;53.446;9.988;2023-04-15T09:31:51;9.90;1.00
16388;DHT22;8303;53.446;9.988;2023-04-15T09:34:19;9.90;1.00
16388;DHT22;8303;53.446;9.988;2023-04-15T09:36:56;9.90;1.00
16388;DHT22;8303;53.446;9.988;2023-04-15T09:39:24;10.10;1.00
16388;DHT22;8303;53.446;9.988;2023-04-15T09:42:05;10.20;1.00
16388;DHT22;8303;53.446;9.988;2023-04-15T09:44:33;10.30;1.00
16388;DHT22;8303;53.446;9.988;2023-04-15T09:47:02;10.40;1.00
16388;DHT22;8303;53.446;9.988;2023-04-15T09:49:29;10.70;1.00
16388;DHT22;8303;53.446;9.988;2023-04-15T09:51:59;10.60;1.00
16388;DHT22;8303;53.446;9.988;2023-04-15T09:54:33;10.70;1.00
16388;DHT22;8303;53.446;9.988;2023-04-15T09:57:09;10.90;1.00
16388;DHT22;8303;53.446;9.988;2023-04-15T09:59:39;10.90;99.90
16388;DHT22;8303;53.446;9.988;2023-04-15T10:02:18;11.00;99.90
16388;DHT22;8303;53.446;9.988;2023-04-15T10:04:47;11.00;99.90
16388;DHT22;8303;53.446;9.988;2023-04-15T10:07:17;10.80;99.90
16388;DHT22;8303;53.446;9.988;2023-04-15T10:09:47;10.70;99.90
16388;DHT22;8303;53.446;9.988;2023-04-15T10:12:16;10.90;99.90
16388;DHT22;8303;53.446;9.988;2023-04-15T10:14:45;11.10;99.90
16388;DHT22;8303;53.446;9.988;2023-04-15T10:17:17;11.20;99.90
16388;DHT22;8303;53.446;9.988;2023-04-15T10:19:45;11.20;99.90
16388;DHT22;8303;53.446;9.988;2023-04-15T10:22:13;11.50;99.90
16388;DHT22;8303;53.446;9.988;2023-04-15T10:24:43;11.70;99.90
16388;DHT22;8303;53.446;9.988;2023-04-15T10:27:11;11.90;99.90
16388;DHT22;8303;53.446;9.988;2023-04-15T10:29:40;12.20;99.90
16388;DHT22;8303;53.446;9.988;2023-04-15T10:32:08;12.30;99.90
16388;DHT22;8303;53.446;9.988;2023-04-15T10:34:37;12.30;99.90
16388;DHT22;8303;53.446;9.988;2023-04-15T10:37:08;12.40;99.90
16388;DHT22;8303;53.446;9.988;2023-04-15T10:39:40;12.60;99.90
16388;DHT22;8303;53.446;9.988;2023-04-15T10:42:10;12.50;99.90
16388;DHT22;8303;53.446;9.988;2023-04-15T10:44:38;12.50;99.90
16388;DHT22;8303;53.446;9.988;2023-04-15T10:47:11;12.70;99.90
16388;DHT22;8303;53.446;9.988;2023-04-15T10:49:45;12.80;99.90
16388;DHT22;8303;53.446;9.988;2023-04-15T10:52:14;12.70;99.90
16388;DHT22;8303;53.446;9.988;2023-04-15T10:54:43;12.70;99.90
16388;DHT22;8303;53.446;9.988;2023-04-15T10:57:16;12.70;99.90
16388;DHT22;8303;53.446;9.988;2023-04-15T11:00:08;12.70;99.90
16388;DHT22;8303;53.446;9.988;2023-04-15T11:02:54;12.70;99.90
16388;DHT22;8303;53.446;9.988;2023-04-15T11:05:22;12.70;99.90
16388;DHT22;8303;53.446;9.988;2023-04-15T11:08:12;12.80;99.90
16388;DHT22;8303;53.446;9.988;2023-04-15T11:10:50;12.90;99.90
16388;DHT22;8303;53.446;9.988;2023-04-15T11:13:27;12.80;99.90
16388;DHT22;8303;53.446;9.988;2023-04-15T11:15:59;13.00;99.90
16388;DHT22;8303;53.446;9.988;2023-04-15T11:18:29;13.20;99.90
16388;DHT22;8303;53.446;9.988;2023-04-15T11:20:58;13.10;93.20
16388;DHT22;8303;53.446;9.988;2023-04-15T11:23:32;13.40;78.60
16388;DHT22;8303;53.446;9.988;2023-04-15T11:26:01;13.30;2.70
16388;DHT22;8303;53.446;9.988;2023-04-15T11:28:31;13.60;8.60
16388;DHT22;8303;53.446;9.988;2023-04-15T11:31:05;13.70;8.50
16388;DHT22;8303;53.446;9.988;2023-04-15T11:33:33;13.40;1.00
16388;DHT22;8303;53.446;9.988;2023-04-15T11:36:01;13.30;16.20
16388;DHT22;8303;53.446;9.988;2023-04-15T11:38:30;13.20;1.00
16388;DHT22;8303;53.446;9.988;2023-04-15T11:40:57;13.00;14.70
16388;DHT22;8303;53.446;9.988;2023-04-15T11:43:25;12.80;24.20
16388;DHT22;8303;53.446;9.988;2023-04-15T11:45:54;12.80;65.70
16388;DHT22;8303;53.446;9.988;2023-04-15T11:48:23;13.00;17.20
16388;DHT22;8303;53.446;9.988;2023-04-15T11:50:54;13.20;10.10
16388;DHT22;8303;53.446;9.988;2023-04-15T11:53:22;13.40;1.00
16388;DHT22;8303;53.446;9.988;2023-04-15T11:55:53;13.70;1.00
16388;DHT22;8303;53.446;9.988;2023-04-15T11:58:22;14.00;1.00
16388;DHT22;8303;53.446;9.988;2023-04-15T12:00:51;14.10;1.00
16388;DHT22;8303;53.446;9.988;2023-04-15T12:03:23;14.10;1.00
16388;DHT22;8303;53.446;9.988;2023-04-15T12:06:07;14.10;1.00
16388;DHT22;8303;53.446;9.988;2023-04-15T12:08:52;14.30;1.00
16388;DHT22;8303;53.446;9.988;2023-04-15T12:11:36;14.20;1.00
16388;DHT22;8303;53.446;9.988;2023-04-15T12:14:06;14.20;1.00
16388;DHT22;8303;53.446;9.988;2023-04-15T12:16:36;14.30;1.00
16388;DHT22;8303;53.446;9.988;2023-04-15T12:19:06;14.20;1.00
16388;DHT22;8303;53.446;9.988;2023-04-15T12:21:36;14.30;1.00
16388;DHT22;8303;53.446;9.988;2023-04-15T12:24:05;14.50;1.00
16388;DHT22;8303;53.446;9.988;2023-04-15T12:26:36;14.60;1.00
16388;DHT22;8303;53.446;9.988;2023-04-15T12:29:05;14.40;1.00
16388;DHT22;8303;53.446;9.988;2023-04-15T12:31:33;14.40;1.00
16388;DHT22;8303;53.446;9.988;2023-04-15T12:34:02;14.50;1.00
16388;DHT22;8303;53.446;9.988;2023-04-15T12:36:30;14.10;1.00
16388;DHT22;8303;53.446;9.988;2023-04-15T12:39:01;13.70;1.00
16388;DHT22;8303;53.446;9.988;2023-04-15T12:41:30;13.50;1.00
16388;DHT22;8303;53.446;9.988;2023-04-15T12:43:58;13.50;1.00
16388;DHT22;8303;53.446;9.988;2023-04-15T12:46:27;13.50;1.00
16388;DHT22;8303;53.446;9.988;2023-04-15T12:48:55;13.30;1.00
16388;DHT22;8303;53.446;9.988;2023-04-15T12:51:23;13.60;1.00
16388;DHT22;8303;53.446;9.988;2023-04-15T12:53:51;13.80;1.00
16388;DHT22;8303;53.446;9.988;2023-04-15T12:56:19;13.80;1.00
16388;DHT22;8303;53.446;9.988;2023-04-15T12:58:47;13.80;1.00
16388;DHT22;8303;53.446;9.988;2023-04-15T13:01:16;13.60;1.00
16388;DHT22;8303;53.446;9.988;2023-04-15T13:03:43;13.40;1.00
16388;DHT22;8303;53.446;9.988;2023-04-15T13:06:10;13.30;1.00
16388;DHT22;8303;53.446;9.988;2023-04-15T13:08:38;13.40;1.00
16388;DHT22;8303;53.446;9.988;2023-04-15T13:11:05;13.50;1.00
16388;DHT22;8303;53.446;9.988;2023-04-15T13:13:33;13.70;1.00
16388;DHT22;8303;53.446;9.988;2023-04-15T13:16:00;13.80;1.00
16388;DHT22;8303;53.446;9.988;2023-04-15T13:18:29;13.80;1.00
16388;DHT22;8303;53.446;9.988;2023-04-15T13:20:56;13.80;1.00
16388;DHT22;8303;53.446;9.988;2023-04-15T13:23:24;13.50;1.00
16388;DHT22;8303;53.446;9.988;2023-04-15T13:25:51;13.30;1.00
16388;DHT22;8303;53.446;9.988;2023-04-15T13:28:19;13.40;1.00
16388;DHT22;8303;53.446;9.988;2023-04-15T13:30:46;13.50;1.00
16388;DHT22;8303;53.446;9.988;2023-04-15T13:33:15;13.60;1.00
16388;DHT22;8303;53.446;9.988;2023-04-15T13:35:43;13.90;1.00
16388;DHT22;8303;53.446;9.988;2023-04-15T13:38:11;13.70;1.00
16388;DHT22;8303;53.446;9.988;2023-04-15T13:40:38;13.40;1.00
16388;DHT22;8303;53.446;9.988;2023-04-15T13:43:06;13.40;1.00
16388;DHT22;8303;53.446;9.988;2023-04-15T13:45:33;13.40;1.00
16388;DHT22;8303;53.446;9.988;2023-04-15T13:48:01;13.50;1.00
16388;DHT22;8303;53.446;9.988;2023-04-15T13:50:28;13.70;1.00
16388;DHT22;8303;53.446;9.988;2023-04-15T13:52:57;13.80;1.00
16388;DHT22;8303;53.446;9.988;2023-04-15T13:55:25;13.90;1.00
16388;DHT22;8303;53.446;9.988;2023-04-15T13:57:52;14.10;1.00
16388;DHT22;8303;53.446;9.988;2023-04-15T14:00:20;14.30;1.00
16388;DHT22;8303;53.446;9.988;2023-04-15T14:02:47;14.40;1.00
16388;DHT22;8303;53.446;9.988;2023-04-15T14:05:14;14.10;1.00
16388;DHT22;8303;53.446;9.988;2023-04-15T14:07:42;14.20;1.00
16388;DHT22;8303;53.446;9.988;2023-04-15T14:10:10;14.30;1.00
16388;DHT22;8303;53.446;9.988;2023-04-15T14:12:38;14.60;1.00
16388;DHT22;8303;53.446;9.988;2023-04-15T14:15:06;14.80;1.00
16388;DHT22;8303;53.446;9.988;2023-04-15T14:17:34;15.20;1.00
16388;DHT22;8303;53.446;9.988;2023-04-15T14:20:01;14.80;1.00
16388;DHT22;8303;53.446;9.988;2023-04-15T14:22:29;15.10;1.00
16388;DHT22;8303;53.446;9.988;2023-04-15T14:24:56;15.20;1.00
16388;DHT22;8303;53.446;9.988;2023-04-15T14:27:25;15.10;1.00
16388;DHT22;8303;53.446;9.988;2023-04-15T14:29:52;14.80;1.00
16388;DHT22;8303;53.446;9.988;2023-04-15T14:32:20;14.70;1.00
16388;DHT22;8303;53.446;9.988;2023-04-15T14:34:48;14.80;1.00
16388;DHT22;8303;53.446;9.988;2023-04-15T14:37:15;14.90;1.00
16388;DHT22;8303;53.446;9.988;2023-04-15T14:39:42;15.30;1.00
16388;DHT22;8303;53.446;9.988;2023-04-15T14:42:10;16.70;99.90
16388;DHT22;8303;53.446;9.988;2023-04-15T14:44:39;16.90;99.90
16388;DHT22;8303;53.446;9.988;2023-04-15T14:47:07;17.50;99.90
16388;DHT22;8303;53.446;9.988;2023-04-15T14:49:34;18.40;99.90
16388;DHT22;8303;53.446;9.988;2023-04-15T14:52:02;18.30;99.90
16388;DHT22;8303;53.446;9.988;2023-04-15T14:54:29;18.10;99.90
16388;DHT22;8303;53.446;9.988;2023-04-15T14:56:56;17.80;99.90
16388;DHT22;8303;53.446;9.988;2023-04-15T14:59:23;17.50;99.90
16388;DHT22;8303;53.446;9.988;2023-04-15T15:01:53;16.70;99.90
16388;DHT22;8303;53.446;9.988;2023-04-15T15:04:20;15.90;99.90
16388;DHT22;8303;53.446;9.988;2023-04-15T15:06:47;15.70;1.00
16388;DHT22;8303;53.446;9.988;2023-04-15T15:09:15;16.00;99.90
16388;DHT22;8303;53.446;9.988;2023-04-15T15:11:44;16.00;99.90
16388;DHT22;8303;53.446;9.988;2023-04-15T15:14:11;15.60;1.00
16388;DHT22;8303;53.446;9.988;2023-04-15T15:16:39;15.30;1.00
16388;DHT22;8303;53.446;9.988;2023-04-15T15:19:07;15.00;1.00
16388;DHT22;8303;53.446;9.988;2023-04-15T15:21:34;15.00;1.00
16388;DHT22;8303;53.446;9.988;2023-04-15T15:24:02;14.90;1.00
16388;DHT22;8303;53.446;9.988;2023-04-15T15:26:29;15.00;1.00
16388;DHT22;8303;53.446;9.988;2023-04-15T15:28:57;15.50;1.00
16388;DHT22;8303;53.446;9.988;2023-04-15T15:31:24;15.60;99.90
16388;DHT22;8303;53.446;9.988;2023-04-15T15:33:52;15.00;1.00
16388;DHT22;8303;53.446;9.988;2023-04-15T15:36:20;14.40;1.00
16388;DHT22;8303;53.446;9.988;2023-04-15T15:38:48;14.40;1.00
16388;DHT22;8303;53.446;9.988;2023-04-15T15:41:15;14.10;1.00
16388;DHT22;8303;53.446;9.988;2023-04-15T15:43:43;14.00;1.00
16388;DHT22;8303;53.446;9.988;2023-04-15T15:46:10;14.40;1.00
16388;DHT22;8303;53.446;9.988;2023-04-15T15:48:37;14.30;1.00
16388;DHT22;8303;53.446;9.988;2023-04-15T15:51:05;14.00;1.00
16388;DHT22;8303;53.446;9.988;2023-04-15T15:53:34;13.80;1.00
16388;DHT22;8303;53.446;9.988;2023-04-15T15:56:01;13.60;1.00
16388;DHT22;8303;53.446;9.988;2023-04-15T15:58:30;13.60;1.00
16388;DHT22;8303;53.446;9.988;2023-04-15T16:00:58;13.60;1.00
16388;DHT22;8303;53.446;9.988;2023-04-15T16:03:26;13.50;1.00
16388;DHT22;8303;53.446;9.988;2023-04-15T16:05:54;13.50;1.00
16388;DHT22;8303;53.446;9.988;2023-04-15T16:08:21;13.50;1.00
16388;DHT22;8303;53.446;9.988;2023-04-15T16:10:50;13.60;1.00
16388;DHT22;8303;53.446;9.988;2023-04-15T16:13:18;13.60;1.00
16388;DHT22;8303;53.446;9.988;2023-04-15T16:15:45;13.60;1.00
16388;DHT22;8303;53.446;9.988;2023-04-15T16:18:14;13.60;1.00
16388;DHT22;8303;53.446;9.988;2023-04-15T16:20:42;13.60;1.00
16388;DHT22;8303;53.446;9.988;2023-04-15T16:23:12;13.60;1.00
16388;DHT22;8303;53.446;9.988;2023-04-15T16:25:41;13.50;1.00
16388;DHT22;8303;53.446;9.988;2023-04-15T16:28:11;13.20;1.00
16388;DHT22;8303;53.446;9.988;2023-04-15T16:30:39;13.00;1.00
16388;DHT22;8303;53.446;9.988;2023-04-15T16:33:08;12.90;1.00
16388;DHT22;8303;53.446;9.988;2023-04-15T16:35:36;12.90;1.00
16388;DHT22;8303;53.446;9.988;2023-04-15T16:38:03;12.90;1.00
16388;DHT22;8303;53.446;9.988;2023-04-15T16:40:31;12.90;1.00
16388;DHT22;8303;53.446;9.988;2023-04-15T16:42:59;12.80;1.00
16388;DHT22;8303;53.446;9.988;2023-04-15T16:45:28;12.60;1.00
16388;DHT22;8303;53.446;9.988;2023-04-15T16:47:55;12.60;1.00
16388;DHT22;8303;53.446;9.988;2023-04-15T16:50:22;12.80;1.00
16388;DHT22;8303;53.446;9.988;2023-04-15T16:52:50;13.00;1.00
16388;DHT22;8303;53.446;9.988;2023-04-15T16:55:17;12.70;1.00
16388;DHT22;8303;53.446;9.988;2023-04-15T16:57:45;12.50;1.00
16388;DHT22;8303;53.446;9.988;2023-04-15T17:00:13;12.30;1.00
16388;DHT22;8303;53.446;9.988;2023-04-15T17:02:41;12.20;1.00
16388;DHT22;8303;53.446;9.988;2023-04-15T17:05:08;12.10;1.00
16388;DHT22;8303;53.446;9.988;2023-04-15T17:07:35;12.00;1.00
16388;DHT22;8303;53.446;9.988;2023-04-15T17:10:03;12.00;1.00
16388;DHT22;8303;53.446;9.988;2023-04-15T17:12:30;12.00;1.00
16388;DHT22;8303;53.446;9.988;2023-04-15T17:14:56;12.00;1.00
16388;DHT22;8303;53.446;9.988;2023-04-15T17:17:23;11.90;1.00
16388;DHT22;8303;53.446;9.988;2023-04-15T17:19:52;11.90;1.00
16388;DHT22;8303;53.446;9.988;2023-04-15T17:22:18;11.90;1.00
16388;DHT22;8303;53.446;9.988;2023-04-15T17:24:45;11.90;1.00
16388;DHT22;8303;53.446;9.988;2023-04-15T17:27:12;11.80;1.00
16388;DHT22;8303;53.446;9.988;2023-04-15T17:29:40;11.80;1.00
16388;DHT22;8303;53.446;9.988;2023-04-15T17:32:07;11.70;1.00
16388;DHT22;8303;53.446;9.988;2023-04-15T17:34:34;11.70;1.00
16388;DHT22;8303;53.446;9.988;2023-04-15T17:37:03;11.70;1.00
16388;DHT22;8303;53.446;9.988;2023-04-15T17:39:30;11.80;1.00
16388;DHT22;8303;53.446;9.988;2023-04-15T17:41:57;11.70;1.00
16388;DHT22;8303;53.446;9.988;2023-04-15T17:44:24;11.70;1.00
16388;DHT22;8303;53.446;9.988;2023-04-15T17:46:50;11.70;1.00
16388;DHT22;8303;53.446;9.988;2023-04-15T17:49:18;11.70;1.00
16388;DHT22;8303;53.446;9.988;2023-04-15T17:51:45;11.70;1.00
16388;DHT22;8303;53.446;9.988;2023-04-15T17:54:13;11.70;1.00
16388;DHT22;8303;53.446;9.988;2023-04-15T17:56:40;11.60;1.00
16388;DHT22;8303;53.446;9.988;2023-04-15T17:59:07;11.60;1.00
16388;DHT22;8303;53.446;9.988;2023-04-15T18:01:34;11.50;1.00
16388;DHT22;8303;53.446;9.988;2023-04-15T18:04:01;11.50;1.00
16388;DHT22;8303;53.446;9.988;2023-04-15T18:06:28;11.50;1.00
16388;DHT22;8303;53.446;9.988;2023-04-15T18:08:55;11.50;1.00
16388;DHT22;8303;53.446;9.988;2023-04-15T18:11:23;11.40;1.00
16388;DHT22;8303;53.446;9.988;2023-04-15T18:13:50;11.30;1.00
16388;DHT22;8303;53.446;9.988;2023-04-15T18:16:17;11.30;1.00
16388;DHT22;8303;53.446;9.988;2023-04-15T18:18:44;11.20;1.00
16388;DHT22;8303;53.446;9.988;2023-04-15T18:21:11;11.10;1.00
16388;DHT22;8303;53.446;9.988;2023-04-15T18:23:38;11.10;1.00
16388;DHT22;8303;53.446;9.988;2023-04-15T18:26:05;11.10;1.00
16388;DHT22;8303;53.446;9.988;2023-04-15T18:28:34;11.10;1.00
16388;DHT22;8303;53.446;9.988;2023-04-15T18:31:02;11.00;1.00
16388;DHT22;8303;53.446;9.988;2023-04-15T18:33:29;10.90;1.00
16388;DHT22;8303;53.446;9.988;2023-04-15T18:35:58;10.90;1.00
16388;DHT22;8303;53.446;9.988;2023-04-15T18:38:27;10.90;1.00
16388;DHT22;8303;53.446;9.988;2023-04-15T18:40:54;10.80;1.00
16388;DHT22;8303;53.446;9.988;2023-04-15T18:43:21;10.80;1.00
16388;DHT22;8303;53.446;9.988;2023-04-15T18:45:50;10.70;1.00
16388;DHT22;8303;53.446;9.988;2023-04-15T18:48:17;10.60;1.00
16388;DHT22;8303;53.446;9.988;2023-04-15T18:50:44;10.60;1.00
16388;DHT22;8303;53.446;9.988;2023-04-15T18:53:12;10.60;1.00
16388;DHT22;8303;53.446;9.988;2023-04-15T18:55:39;10.50;10.40
16388;DHT22;8303;53.446;9.988;2023-04-15T18:58:06;10.40;2.20
16388;DHT22;8303;53.446;9.988;2023-04-15T19:00:34;10.40;1.20
16388;DHT22;8303;53.446;9.988;2023-04-15T19:03:02;10.30;4.80
16388;DHT22;8303;53.446;9.988;2023-04-15T19:05:29;10.30;5.70
16388;DHT22;8303;53.446;9.988;2023-04-15T19:07:56;10.30;7.40
16388;DHT22;8303;53.446;9.988;2023-04-15T19:10:23;10.20;15.40
16388;DHT22;8303;53.446;9.988;2023-04-15T19:12:53;10.20;22.50
16388;DHT22;8303;53.446;9.988;2023-04-15T19:15:20;10.10;29.70
16388;DHT22;8303;53.446;9.988;2023-04-15T19:17:47;10.20;40.70
16388;DHT22;8303;53.446;9.988;2023-04-15T19:20:16;10.20;29.10
16388;DHT22;8303;53.446;9.988;2023-04-15T19:22:43;10.10;20.90
16388;DHT22;8303;53.446;9.988;2023-04-15T19:25:10;10.10;37.10
16388;DHT22;8303;53.446;9.988;2023-04-15T19:27:37;10.10;39.70
16388;DHT22;8303;53.446;9.988;2023-04-15T19:30:05;10.00;45.10
16388;DHT22;8303;53.446;9.988;2023-04-15T19:32:32;10.10;50.20
16388;DHT22;8303;53.446;9.988;2023-04-15T19:34:59;10.10;53.80
16388;DHT22;8303;53.446;9.988;2023-04-15T19:37:27;10.10;58.60
16388;DHT22;8303;53.446;9.988;2023-04-15T19:39:54;10.10;90.80
16388;DHT22;8303;53.446;9.988;2023-04-15T19:42:21;10.00;82.40
16388;DHT22;8303;53.446;9.988;2023-04-15T19:44:48;10.00;91.60
16388;DHT22;8303;53.446;9.988;2023-04-15T19:47:15;10.00;93.10
16388;DHT22;8303;53.446;9.988;2023-04-15T19:49:42;9.90;95.60
16388;DHT22;8303;53.446;9.988;2023-04-15T19:52:09;9.80;99.90
16388;DHT22;8303;53.446;9.988;2023-04-15T19:54:37;9.80;99.90
16388;DHT22;8303;53.446;9.988;2023-04-15T19:57:04;9.70;99.90
16388;DHT22;8303;53.446;9.988;2023-04-15T19:59:31;9.60;99.90
16388;DHT22;8303;53.446;9.988;2023-04-15T20:01:58;9.60;99.90
16388;DHT22;8303;53.446;9.988;2023-04-15T20:04:25;9.60;99.90
16388;DHT22;8303;53.446;9.988;2023-04-15T20:06:52;9.60;99.90
16388;DHT22;8303;53.446;9.988;2023-04-15T20:09:19;9.60;99.90
16388;DHT22;8303;53.446;9.988;2023-04-15T20:11:47;9.40;99.90
16388;DHT22;8303;53.446;9.988;2023-04-15T20:14:14;9.30;92.80
16388;DHT22;8303;53.446;9.988;2023-04-15T20:16:42;9.30;97.70
16388;DHT22;8303;53.446;9.988;2023-04-15T20:19:08;9.20;94.70
16388;DHT22;8303;53.446;9.988;2023-04-15T20:21:36;9.20;79.40
16388;DHT22;8303;53.446;9.988;2023-04-15T20:24:04;9.10;78.20
16388;DHT22;8303;53.446;9.988;2023-04-15T20:26:31;9.20;85.50
16388;DHT22;8303;53.446;9.988;2023-04-15T20:28:59;9.20;87.10
